Time;durP1;ratioP1;P1;durP2;ratioP2;P2;SDS_P1;SDS_P2;PMS_P1;PMS_P2;Temp;Humidity;BMP_temperature;BMP_pressure;BME280_temperature;BME280_humidity;BME280_pressure;Samples;Min_cycle;Max_cycle;Signal;HPM_P1;HPM_P2
2023/05/21 00:01:42;;;;;;;4.88;3.30;;;13.80;1.00;;;;;;5060041;28;20054;-29
2023/05/21 00:04:07;;;;;;;7.25;3.50;;;13.70;1.00;;;;;;5093591;28;20044;-30
2023/05/21 00:06:36;;;;;;;5.03;3.15;;;13.70;1.00;;;;;;5094742;28;20171;-29
2023/05/21 00:09:05;;;;;;;4.57;3.42;;;13.70;4.90;;;;;;5094596;28;20123;-29
2023/05/21 00:11:31;;;;;;;6.93;3.75;;;13.70;1.00;;;;;;5094608;28;20052;-29
2023/05/21 00:13:57;;;;;;;7.82;3.60;;;13.60;1.00;;;;;;5094545;28;20126;-29
2023/05/21 00:16:24;;;;;;;5.68;3.80;;;13.70;2.80;;;;;;5094565;28;20051;-29
2023/05/21 00:18:53;;;;;;;7.75;3.53;;;13.60;21.70;;;;;;5093290;28;20052;-29
2023/05/21 00:21:24;;;;;;;4.80;3.47;;;13.50;78.60;;;;;;5094538;28;20055;-29
2023/05/21 00:23:53;;;;;;;7.47;3.72;;;13.60;41.90;;;;;;5094500;28;20529;-29
2023/05/21 00:26:20;;;;;;;5.10;3.58;;;13.50;76.90;;;;;;5076806;28;20054;-29
2023/05/21 00:28:46;;;;;;;3.90;3.28;;;13.60;97.00;;;;;;5094128;28;20479;-30
2023/05/21 00:31:12;;;;;;;5.55;3.60;;;13.60;98.30;;;;;;5094346;28;20058;-29
2023/05/21 00:33:37;;;;;;;7.28;4.00;;;13.50;96.10;;;;;;5094546;28;20043;-28
2023/05/21 00:36:04;;;;;;;5.38;3.65;;;13.50;99.90;;;;;;5094210;28;20131;-28
2023/05/21 00:38:31;;;;;;;5.97;3.63;;;13.50;99.90;;;;;;5094149;28;20508;-30
2023/05/21 00:41:02;;;;;;;6.43;3.45;;;13.50;99.90;;;;;;5094090;28;20430;-29
2023/05/21 00:43:28;;;;;;;7.50;3.83;;;13.50;99.90;;;;;;5092964;28;20048;-29
2023/05/21 00:45:55;;;;;;;5.18;3.90;;;13.50;99.90;;;;;;5092599;28;20056;-29
2023/05/21 00:48:21;;;;;;;11.95;3.75;;;13.40;99.90;;;;;;5094013;28;20457;-29
2023/05/21 00:50:49;;;;;;;6.13;4.03;;;13.40;99.90;;;;;;5076128;28;20097;-29
2023/05/21 00:53:18;;;;;;;8.05;3.03;;;13.50;99.90;;;;;;5060368;28;20051;-29
2023/05/21 00:55:45;;;;;;;8.38;4.00;;;13.50;99.90;;;;;;5094511;28;20131;-29
2023/05/21 00:58:11;;;;;;;5.88;3.17;;;13.40;99.90;;;;;;5092897;28;20498;-29
2023/05/21 01:00:39;;;;;;;4.95;3.17;;;13.50;99.90;;;;;;5075847;28;20071;-30
2023/05/21 01:03:05;;;;;;;5.03;2.95;;;13.50;99.90;;;;;;5092623;28;20040;-29
2023/05/21 01:05:31;;;;;;;8.48;3.38;;;13.50;99.90;;;;;;5094628;28;20089;-29
2023/05/21 01:07:57;;;;;;;6.07;3.65;;;13.50;99.90;;;;;;5094574;28;20399;-29
2023/05/21 01:10:25;;;;;;;5.80;3.85;;;13.50;99.90;;;;;;5092436;28;20047;-29
2023/05/21 01:12:52;;;;;;;11.98;3.63;;;13.50;99.90;;;;;;5093723;28;20412;-29
2023/05/21 01:15:17;;;;;;;7.40;3.38;;;13.50;99.90;;;;;;5093688;28;20047;-29
2023/05/21 01:17:47;;;;;;;7.72;3.88;;;13.50;99.90;;;;;;5093587;28;20055;-29
2023/05/21 01:20:17;;;;;;;7.82;3.58;;;13.50;99.90;;;;;;5075882;28;20058;-29
2023/05/21 01:22:53;;;;;;;6.03;3.90;;;13.40;99.90;;;;;;5092956;28;20136;-29
2023/05/21 01:25:21;;;;;;;6.07;3.60;;;13.40;99.90;;;;;;5092708;28;20056;-29
2023/05/21 01:27:47;;;;;;;6.78;3.78;;;13.40;99.90;;;;;;5092200;28;20044;-28
2023/05/21 01:30:15;;;;;;;8.52;4.18;;;13.40;99.90;;;;;;5092327;28;20087;-28
2023/05/21 01:32:52;;;;;;;8.32;3.85;;;13.40;99.90;;;;;;5092554;28;20113;-29
2023/05/21 01:35:26;;;;;;;8.50;4.43;;;13.40;1.00;;;;;;5075437;28;20044;-29
2023/05/21 01:37:58;;;;;;;5.68;4.07;;;13.40;1.00;;;;;;5075700;28;20471;-29
2023/05/21 01:40:45;;;;;;;7.13;4.78;;;13.40;1.00;;;;;;5093774;28;20044;-29
2023/05/21 01:43:13;;;;;;;8.77;5.60;;;13.30;1.00;;;;;;5075574;28;20109;-29
2023/05/21 01:45:41;;;;;;;11.70;5.22;;;13.30;1.00;;;;;;5093012;28;20138;-30
2023/05/21 01:48:07;;;;;;;9.00;5.55;;;13.30;1.00;;;;;;5097397;28;20059;-29
2023/05/21 01:50:36;;;;;;;8.98;6.13;;;13.30;1.00;;;;;;5097270;28;20048;-29
2023/05/21 01:53:04;;;;;;;12.15;6.78;;;13.30;1.30;;;;;;5097019;28;20457;-28
2023/05/21 01:55:31;;;;;;;10.45;6.95;;;13.30;22.00;;;;;;5096288;28;20056;-29
2023/05/21 01:57:58;;;;;;;11.73;7.38;;;13.30;48.50;;;;;;5097192;28;20044;-30
2023/05/21 02:00:28;;;;;;;11.23;7.35;;;13.30;99.90;;;;;;5097205;28;20040;-29
2023/05/21 02:02:54;;;;;;;11.43;7.10;;;13.30;99.90;;;;;;5096132;28;20131;-29
2023/05/21 02:05:20;;;;;;;12.30;6.72;;;13.30;99.90;;;;;;5096115;28;20060;-28
2023/05/21 02:07:46;;;;;;;14.43;7.47;;;13.30;99.90;;;;;;5079176;28;20047;-29
2023/05/21 02:10:12;;;;;;;13.32;7.10;;;13.30;99.90;;;;;;5079726;28;20098;-30
2023/05/21 02:12:38;;;;;;;18.67;7.57;;;13.30;99.90;;;;;;5095806;28;20071;-29
2023/05/21 02:15:04;;;;;;;10.70;6.70;;;13.20;99.90;;;;;;5079934;28;20382;-28
2023/05/21 02:17:32;;;;;;;13.77;7.30;;;13.10;99.90;;;;;;5078924;28;20047;-29
2023/05/21 02:20:21;;;;;;;11.55;6.55;;;13.10;99.90;;;;;;5096763;28;20044;-29
2023/05/21 02:22:46;;;;;;;12.75;6.88;;;13.20;99.90;;;;;;5096592;28;20055;-29
2023/05/21 02:25:14;;;;;;;12.95;6.95;;;13.20;99.90;;;;;;5095721;28;20494;-29
2023/05/21 02:27:41;;;;;;;17.33;8.35;;;13.20;99.90;;;;;;5078422;28;20059;-29
2023/05/21 02:30:10;;;;;;;14.45;7.68;;;13.20;99.90;;;;;;5096557;28;20131;-28
2023/05/21 02:32:36;;;;;;;14.27;7.60;;;13.10;99.90;;;;;;5095439;28;20080;-29
2023/05/21 02:35:03;;;;;;;10.57;7.53;;;13.10;99.90;;;;;;5095253;28;20044;-28
2023/05/21 02:37:32;;;;;;;12.05;7.47;;;13.00;99.90;;;;;;5094922;28;20054;-28
2023/05/21 02:39:59;;;;;;;14.60;7.07;;;13.00;99.90;;;;;;5096422;28;20040;-28
2023/05/21 02:42:25;;;;;;;14.55;7.30;;;13.00;99.90;;;;;;5096988;28;20062;-31
2023/05/21 02:44:51;;;;;;;12.75;7.22;;;12.90;99.90;;;;;;5095414;28;20475;-29
2023/05/21 02:47:18;;;;;;;9.27;6.13;;;12.80;99.90;;;;;;5096611;28;20047;-28
2023/05/21 02:49:45;;;;;;;15.27;7.07;;;12.80;99.90;;;;;;5094980;28;20036;-29
2023/05/21 02:52:11;;;;;;;15.27;7.25;;;12.50;99.90;;;;;;5096273;28;20048;-29
2023/05/21 02:54:36;;;;;;;15.07;7.40;;;12.80;99.90;;;;;;5095424;28;20044;-30
2023/05/21 02:57:02;;;;;;;15.85;6.80;;;12.80;99.90;;;;;;5078016;28;20044;-29
2023/05/21 02:59:28;;;;;;;11.90;7.05;;;12.80;99.90;;;;;;5096546;28;20051;-28
2023/05/21 03:01:53;;;;;;;16.15;6.88;;;12.80;99.90;;;;;;5094808;28;20141;-29
2023/05/21 03:04:22;;;;;;;12.93;7.05;;;12.80;99.90;;;;;;5095494;28;20046;-29
2023/05/21 03:06:53;;;;;;;9.73;6.53;;;12.80;99.90;;;;;;5095956;28;20051;-28
2023/05/21 03:09:23;;;;;;;9.15;6.47;;;12.80;99.90;;;;;;5095301;28;20054;-29
2023/05/21 03:11:49;;;;;;;16.73;7.85;;;12.70;99.90;;;;;;5095784;28;20040;-29
2023/05/21 03:14:17;;;;;;;12.63;7.38;;;12.70;99.90;;;;;;5095724;28;20063;-28
2023/05/21 03:16:43;;;;;;;15.43;8.15;;;12.70;99.90;;;;;;5095717;28;20109;-29
2023/05/21 03:19:10;;;;;;;15.95;7.20;;;12.60;99.90;;;;;;5095887;28;20491;-28
2023/05/21 03:21:36;;;;;;;16.42;9.00;;;12.70;99.90;;;;;;5096166;28;20083;-29
2023/05/21 03:24:03;;;;;;;12.57;8.38;;;12.70;99.90;;;;;;5094303;28;20040;-29
2023/05/21 03:26:29;;;;;;;13.60;8.65;;;12.70;99.90;;;;;;5095973;28;20399;-28
2023/05/21 03:28:55;;;;;;;14.85;8.68;;;12.70;99.90;;;;;;5094611;28;20048;-29
2023/05/21 03:31:25;;;;;;;17.55;9.32;;;12.60;99.90;;;;;;5096247;28;20122;-29
2023/05/21 03:33:52;;;;;;;15.18;8.52;;;12.70;99.90;;;;;;5095349;28;20043;-29
2023/05/21 03:36:18;;;;;;;15.82;8.15;;;12.60;99.90;;;;;;5095303;28;20040;-29
2023/05/21 03:38:44;;;;;;;15.23;8.77;;;12.60;99.90;;;;;;5095273;28;20135;-29
2023/05/21 03:41:10;;;;;;;12.48;8.32;;;12.60;99.90;;;;;;5094204;28;20052;-29
2023/05/21 03:43:36;;;;;;;23.02;8.48;;;12.60;99.90;;;;;;5094150;28;20137;-29
2023/05/21 03:46:02;;;;;;;15.88;8.35;;;12.50;99.90;;;;;;5095044;28;20055;-30
2023/05/21 03:48:27;;;;;;;14.57;7.47;;;12.60;99.90;;;;;;5095074;28;20106;-29
2023/05/21 03:50:53;;;;;;;13.25;6.97;;;12.60;99.90;;;;;;5093843;28;20055;-29
2023/05/21 03:53:19;;;;;;;16.00;7.65;;;12.60;99.90;;;;;;5093804;28;20044;-29
2023/05/21 03:55:46;;;;;;;12.63;6.90;;;12.60;99.90;;;;;;5093927;28;20047;-29
2023/05/21 03:58:11;;;;;;;15.10;7.55;;;12.60;99.90;;;;;;5077730;28;20083;-29
2023/05/21 04:00:37;;;;;;;12.18;7.03;;;12.60;99.90;;;;;;5094809;28;20079;-29
2023/05/21 04:03:03;;;;;;;9.80;6.35;;;12.60;99.90;;;;;;5094863;28;20063;-29
2023/05/21 04:05:29;;;;;;;11.40;7.20;;;12.60;99.90;;;;;;5094795;28;20430;-29
2023/05/21 04:07:55;;;;;;;11.35;5.85;;;12.40;99.90;;;;;;5093505;28;20403;-29
2023/05/21 04:10:21;;;;;;;11.40;5.57;;;12.70;99.90;;;;;;5076215;28;20387;-29
2023/05/21 04:12:51;;;;;;;13.32;6.68;;;12.70;99.90;;;;;;5095251;28;20081;-28
2023/05/21 04:15:20;;;;;;;9.35;5.45;;;12.70;99.90;;;;;;5093345;28;20087;-28
2023/05/21 04:17:46;;;;;;;11.48;5.35;;;12.70;99.90;;;;;;5060560;28;20055;-30
2023/05/21 04:20:12;;;;;;;10.57;6.57;;;12.70;99.90;;;;;;5094783;28;20044;-29
2023/05/21 04:22:38;;;;;;;10.68;5.60;;;12.70;99.90;;;;;;5094503;28;20052;-30
2023/05/21 04:25:05;;;;;;;8.63;5.35;;;12.70;99.90;;;;;;5094409;28;20085;-29
2023/05/21 04:27:30;;;;;;;9.77;4.90;;;12.80;99.90;;;;;;5092788;28;20090;-29
2023/05/21 04:29:56;;;;;;;9.40;5.65;;;12.80;99.90;;;;;;5093667;28;20075;-29
2023/05/21 04:32:23;;;;;;;14.23;5.63;;;12.80;99.90;;;;;;5093051;28;20086;-29
2023/05/21 04:34:49;;;;;;;15.90;5.55;;;12.80;99.90;;;;;;5094228;28;20048;-29
2023/05/21 04:37:17;;;;;;;9.95;5.60;;;12.90;99.90;;;;;;5093069;28;20206;-28
2023/05/21 04:39:44;;;;;;;14.88;5.25;;;13.00;99.90;;;;;;5093975;28;20055;-29
2023/05/21 04:42:09;;;;;;;13.98;5.65;;;13.00;99.90;;;;;;5094396;28;20074;-28
2023/05/21 04:44:37;;;;;;;11.20;4.88;;;13.00;99.90;;;;;;5093896;28;20048;-29
2023/05/21 04:47:03;;;;;;;9.40;5.25;;;13.20;99.90;;;;;;5092870;28;20048;-29
2023/05/21 04:49:29;;;;;;;12.90;5.35;;;13.20;99.90;;;;;;5092685;28;20475;-29
2023/05/21 04:51:55;;;;;;;20.30;5.50;;;13.30;99.90;;;;;;5075869;28;20040;-29
2023/05/21 04:54:21;;;;;;;9.38;4.65;;;13.30;99.90;;;;;;5093329;28;20105;-29
2023/05/21 04:56:47;;;;;;;13.20;5.47;;;13.40;99.90;;;;;;5094187;28;20040;-29
2023/05/21 04:59:13;;;;;;;12.57;5.68;;;13.40;99.90;;;;;;5093873;28;20516;-28
2023/05/21 05:01:40;;;;;;;10.20;4.75;;;13.10;99.90;;;;;;5092679;28;20047;-29
2023/05/21 05:04:05;;;;;;;13.02;4.90;;;13.50;99.90;;;;;;5092656;28;20141;-29
2023/05/21 05:06:31;;;;;;;11.30;5.32;;;13.60;99.90;;;;;;5093814;28;20082;-28
2023/05/21 05:08:57;;;;;;;10.70;4.17;;;13.60;99.90;;;;;;5092554;28;20475;-29
2023/05/21 05:11:22;;;;;;;10.90;4.88;;;13.60;99.90;;;;;;5093376;28;20075;-29
2023/05/21 05:13:48;;;;;;;20.75;5.38;;;13.60;99.90;;;;;;5076364;28;20144;-29
2023/05/21 05:16:17;;;;;;;10.18;4.75;;;13.70;99.90;;;;;;5092525;28;20043;-29
2023/05/21 05:18:43;;;;;;;9.48;4.57;;;13.90;99.90;;;;;;5092709;28;20449;-29
2023/05/21 05:21:08;;;;;;;12.07;4.72;;;13.80;99.90;;;;;;5077511;28;20043;-29
2023/05/21 05:23:34;;;;;;;9.60;4.60;;;13.70;99.90;;;;;;5096467;28;20487;-29
2023/05/21 05:26:00;;;;;;;10.68;4.80;;;13.80;99.90;;;;;;5079930;28;20047;-29
2023/05/21 05:28:26;;;;;;;13.10;5.65;;;13.80;99.90;;;;;;5096742;28;20054;-28
2023/05/21 05:30:51;;;;;;;9.10;4.25;;;13.80;99.90;;;;;;5097046;28;20036;-29
2023/05/21 05:33:17;;;;;;;13.55;5.60;;;13.90;99.90;;;;;;5097691;28;20483;-29
2023/05/21 05:35:43;;;;;;;11.32;4.95;;;13.90;99.90;;;;;;5096344;28;20072;-28
2023/05/21 05:38:09;;;;;;;14.20;5.18;;;14.00;99.90;;;;;;5079482;28;20097;-29
2023/05/21 05:40:35;;;;;;;12.45;5.65;;;14.10;99.90;;;;;;5098100;28;20379;-29
2023/05/21 05:43:01;;;;;;;12.43;5.47;;;14.30;99.90;;;;;;5096344;28;20077;-29
2023/05/21 05:45:27;;;;;;;14.82;5.80;;;14.40;99.90;;;;;;5096073;28;20058;-29
2023/05/21 05:47:53;;;;;;;9.57;4.90;;;14.60;99.90;;;;;;5079796;28;20491;-29
2023/05/21 05:50:19;;;;;;;13.80;5.72;;;14.90;32.40;;;;;;5045675;28;20123;-29
2023/05/21 05:52:45;;;;;;;12.68;5.05;;;14.90;1.00;;;;;;5096769;28;20054;-29
2023/05/21 05:55:11;;;;;;;11.05;4.88;;;14.90;1.00;;;;;;5097359;28;20052;-28
2023/05/21 05:57:37;;;;;;;10.75;5.40;;;14.90;1.00;;;;;;5096585;28;20078;-29
2023/05/21 06:00:04;;;;;;;8.75;4.25;;;15.00;1.00;;;;;;5096036;28;20079;-28
2023/05/21 06:02:30;;;;;;;9.52;4.60;;;15.10;1.00;;;;;;5079043;28;20056;-29
2023/05/21 06:04:57;;;;;;;10.20;4.60;;;15.40;1.00;;;;;;5097099;28;20055;-29
2023/05/21 06:07:23;;;;;;;10.27;3.95;;;15.90;99.90;;;;;;5097914;28;20373;-29
2023/05/21 06:09:48;;;;;;;7.90;3.90;;;16.30;99.90;;;;;;5079796;28;20046;-29
2023/05/21 06:12:14;;;;;;;11.43;4.32;;;16.60;1.00;;;;;;5078802;28;20056;-29
2023/05/21 06:14:41;;;;;;;8.55;3.63;;;17.20;1.00;;;;;;5096904;28;20040;-29
2023/05/21 06:17:08;;;;;;;7.78;3.45;;;;;;;;;;5096866;28;20052;-29
2023/05/21 06:19:33;;;;;;;9.18;3.78;;;17.50;1.00;;;;;;5096824;28;20130;-30
2023/05/21 06:21:59;;;;;;;15.13;4.53;;;16.90;1.00;;;;;;5095643;28;20087;-29
2023/05/21 06:24:25;;;;;;;9.60;3.63;;;16.20;1.00;;;;;;5096104;28;20079;-28
2023/05/21 06:26:50;;;;;;;8.90;3.70;;;16.10;99.90;;;;;;5062085;28;20070;-28
2023/05/21 06:29:16;;;;;;;10.88;3.67;;;16.00;99.90;;;;;;5078717;28;20131;-28
2023/05/21 06:31:43;;;;;;;10.68;4.05;;;16.40;99.90;;;;;;5095022;28;20055;-29
2023/05/21 06:34:10;;;;;;;9.88;3.67;;;16.60;99.90;;;;;;5061520;28;20052;-29
2023/05/21 06:36:36;;;;;;;8.18;3.67;;;16.90;60.50;;;;;;5078675;28;20048;-28
2023/05/21 06:39:02;;;;;;;7.05;3.47;;;17.00;1.00;;;;;;5096487;28;20441;-28
2023/05/21 06:41:28;;;;;;;12.68;4.18;;;17.50;53.80;;;;;;5078624;28;20075;-29
2023/05/21 06:43:54;;;;;;;6.60;3.80;;;18.10;99.90;;;;;;5095109;28;20066;-28
2023/05/21 06:46:19;;;;;;;10.35;3.50;;;18.60;1.00;;;;;;5096814;28;20169;-28
2023/05/21 06:48:45;;;;;;;8.73;3.50;;;18.50;99.90;;;;;;5096810;28;20131;-29
2023/05/21 06:51:11;;;;;;;9.13;3.53;;;18.20;99.90;;;;;;5096242;28;20094;-29
2023/05/21 06:53:37;;;;;;;7.95;3.70;;;18.10;99.90;;;;;;5095507;28;20044;-29
2023/05/21 06:56:03;;;;;;;9.55;3.42;;;17.90;99.90;;;;;;5095175;28;20051;-28
2023/05/21 06:58:30;;;;;;;5.82;3.28;;;17.90;99.90;;;;;;5095551;28;20122;-29
2023/05/21 07:01:00;;;;;;;7.70;3.47;;;17.90;99.90;;;;;;5077927;28;20517;-28
2023/05/21 07:03:26;;;;;;;6.28;3.05;;;18.00;53.30;;;;;;5094835;28;20064;-29
2023/05/21 07:05:52;;;;;;;9.48;3.55;;;17.60;40.60;;;;;;5095990;28;20055;-28
2023/05/21 07:08:18;;;;;;;10.65;4.05;;;17.50;99.90;;;;;;5096439;28;20040;-28
2023/05/21 07:10:45;;;;;;;5.32;3.13;;;17.70;99.90;;;;;;5095800;28;20395;-29
2023/05/21 07:13:11;;;;;;;7.68;3.30;;;17.90;99.90;;;;;;5094726;28;20170;-29
2023/05/21 07:15:37;;;;;;;7.18;3.38;;;18.00;65.30;;;;;;5078223;28;20058;-28
2023/05/21 07:18:03;;;;;;;7.47;3.78;;;18.00;78.40;;;;;;5095641;28;20048;-29
2023/05/21 07:20:29;;;;;;;7.53;3.72;;;18.00;1.00;;;;;;5078715;28;20471;-29
2023/05/21 07:22:55;;;;;;;7.50;3.67;;;17.90;88.10;;;;;;5094665;28;20080;-28
2023/05/21 07:25:21;;;;;;;9.32;3.15;;;17.80;99.90;;;;;;5094690;28;20084;-29
2023/05/21 07:27:47;;;;;;;7.70;3.10;;;17.70;1.00;;;;;;5095754;28;20479;-29
2023/05/21 07:30:13;;;;;;;6.25;2.70;;;17.80;1.00;;;;;;5077098;28;20118;-28
2023/05/21 07:32:39;;;;;;;9.38;2.90;;;17.70;99.90;;;;;;5077254;28;20461;-29
2023/05/21 07:35:05;;;;;;;7.22;3.33;;;17.70;1.00;;;;;;5094236;28;20048;-28
2023/05/21 07:37:31;;;;;;;4.57;2.75;;;17.60;1.00;;;;;;5078456;28;20083;-28
2023/05/21 07:39:57;;;;;;;8.95;3.25;;;17.40;99.90;;;;;;5094575;28;20079;-28
2023/05/21 07:42:24;;;;;;;7.15;2.90;;;17.10;99.90;;;;;;5096078;28;20052;-29
2023/05/21 07:44:50;;;;;;;6.55;3.00;;;17.00;99.90;;;;;;5094000;28;20470;-28
2023/05/21 07:47:15;;;;;;;10.35;3.30;;;16.90;99.90;;;;;;5094466;28;20059;-28
2023/05/21 07:49:41;;;;;;;7.28;2.97;;;17.00;99.90;;;;;;5095106;28;20394;-29
2023/05/21 07:52:07;;;;;;;7.55;3.00;;;17.00;1.00;;;;;;5095057;28;20403;-29
2023/05/21 07:54:33;;;;;;;7.03;2.63;;;17.10;1.00;;;;;;5095290;28;20067;-28
2023/05/21 07:57:01;;;;;;;6.95;3.10;;;17.50;1.00;;;;;;5094094;28;20371;-28
2023/05/21 07:59:27;;;;;;;8.48;3.00;;;18.20;99.90;;;;;;5094381;28;20441;-29
2023/05/21 08:01:53;;;;;;;8.18;3.08;;;18.50;52.10;;;;;;5077095;28;20489;-30
2023/05/21 08:04:19;;;;;;;5.05;2.67;;;18.60;1.00;;;;;;5094424;28;20044;-29
2023/05/21 08:06:45;;;;;;;6.35;2.97;;;18.50;1.00;;;;;;5093585;28;20102;-29
2023/05/21 08:09:11;;;;;;;6.57;2.70;;;18.30;1.00;;;;;;5077337;28;20399;-28
2023/05/21 08:11:37;;;;;;;5.88;2.70;;;18.30;1.00;;;;;;5076921;28;20079;-29
2023/05/21 08:14:03;;;;;;;5.65;2.92;;;18.50;1.00;;;;;;5093712;28;20044;-29
2023/05/21 08:16:29;;;;;;;7.05;2.95;;;18.90;99.90;;;;;;5094657;28;20541;-28
2023/05/21 08:18:55;;;;;;;4.57;2.40;;;19.40;91.60;;;;;;5094536;28;20497;-28
2023/05/21 08:21:21;;;;;;;6.40;2.40;;;19.80;1.00;;;;;;5094213;28;20048;-30
2023/05/21 08:23:47;;;;;;;4.70;2.58;;;19.90;99.90;;;;;;5077136;28;20048;-28
2023/05/21 08:26:15;;;;;;;8.32;2.70;;;19.90;99.90;;;;;;5076296;28;20384;-29
2023/05/21 08:28:41;;;;;;;7.38;2.88;;;19.30;99.90;;;;;;5093179;28;20523;-29
2023/05/21 08:31:07;;;;;;;7.20;2.85;;;19.40;1.00;;;;;;5093115;28;20147;-28
2023/05/21 08:33:37;;;;;;;5.63;2.60;;;19.80;99.90;;;;;;5093625;28;20051;-28
2023/05/21 08:36:04;;;;;;;4.90;2.33;;;20.10;1.00;;;;;;5076204;28;20044;-28
2023/05/21 08:38:30;;;;;;;7.28;2.88;;;20.10;1.00;;;;;;5060697;28;20063;-29
2023/05/21 08:40:58;;;;;;;5.65;2.63;;;20.20;1.00;;;;;;5093011;28;20048;-29
2023/05/21 08:43:28;;;;;;;8.75;4.35;;;20.30;1.00;;;;;;5094107;28;20052;-28
2023/05/21 08:45:57;;;;;;;6.85;3.08;;;20.50;99.90;;;;;;5092502;28;20477;-29
2023/05/21 08:48:23;;;;;;;4.00;2.58;;;20.90;99.90;;;;;;5094045;28;20128;-29
2023/05/21 08:50:52;;;;;;;9.40;3.55;;;21.10;99.90;;;;;;5092821;28;20044;-30
2023/05/21 08:53:18;;;;;;;11.20;4.28;;;21.00;10.60;;;;;;5093626;28;20383;-29
2023/05/21 08:55:44;;;;;;;8.82;3.15;;;20.70;1.00;;;;;;5093788;28;20040;-29
2023/05/21 08:58:10;;;;;;;5.60;2.85;;;20.50;99.90;;;;;;5092817;28;20056;-29
2023/05/21 09:00:36;;;;;;;6.25;2.67;;;20.50;97.60;;;;;;5059208;28;20479;-29
2023/05/21 09:03:09;;;;;;;6.05;2.28;;;20.50;99.90;;;;;;5092935;28;20069;-29
2023/05/21 09:05:37;;;;;;;;;;;20.70;1.00;;;;;;5076238;28;20052;-28
2023/05/21 09:08:20;;;;;;;7.97;2.50;;;20.50;1.00;;;;;;5076248;28;19927;-28
2023/05/21 09:10:51;;;;;;;6.63;3.53;;;20.70;1.00;;;;;;5092901;28;20048;-29
2023/05/21 09:13:18;;;;;;;6.45;2.80;;;20.60;1.00;;;;;;5092811;28;20055;-28
2023/05/21 09:15:45;;;;;;;5.85;2.75;;;20.80;9.40;;;;;;5060111;28;20133;-29
2023/05/21 09:18:12;;;;;;;7.18;2.83;;;21.00;1.00;;;;;;5076195;28;20044;-29
2023/05/21 09:20:39;;;;;;;6.80;2.60;;;20.90;1.00;;;;;;5092572;28;20399;-29
2023/05/21 09:23:11;;;;;;;6.25;2.97;;;20.90;1.00;;;;;;5076193;28;20048;-29
2023/05/21 09:25:37;;;;;;;8.60;2.85;;;20.80;1.00;;;;;;5093672;28;20491;-28
2023/05/21 09:28:10;;;;;;;5.32;2.60;;;20.60;1.00;;;;;;5093464;28;20044;-28
2023/05/21 09:30:35;;;;;;;10.77;3.40;;;20.50;1.00;;;;;;5092099;28;20566;-29
2023/05/21 09:33:02;;;;;;;5.65;2.67;;;20.50;1.00;;;;;;5092174;28;20127;-28
2023/05/21 09:35:28;;;;;;;8.50;3.22;;;20.40;1.00;;;;;;5076709;28;20083;-29
2023/05/21 09:37:56;;;;;;;6.60;2.75;;;20.30;1.00;;;;;;5076254;28;20092;-29
2023/05/21 09:40:22;;;;;;;5.35;2.88;;;20.50;1.00;;;;;;5075661;28;20552;-29
2023/05/21 09:42:54;;;;;;;11.43;3.33;;;20.40;1.00;;;;;;5075728;28;20079;-30
2023/05/21 09:45:22;;;;;;;9.90;4.07;;;20.20;99.90;;;;;;5075198;28;20441;-29
2023/05/21 09:47:49;;;;;;;9.90;3.00;;;20.30;1.00;;;;;;5093504;28;20101;-28
2023/05/21 09:50:26;;;;;;;5.20;2.38;;;20.60;1.00;;;;;;5075476;28;20463;-29
2023/05/21 09:52:54;;;;;;;5.75;2.83;;;21.00;99.90;;;;;;5093415;28;20051;-29
2023/05/21 09:55:26;;;;;;;4.38;2.67;;;21.10;99.90;;;;;;5080749;28;20471;-30
2023/05/21 09:57:52;;;;;;;7.15;2.63;;;21.20;99.90;;;;;;5079004;28;20470;-29
2023/05/21 10:00:23;;;;;;;9.38;2.97;;;21.30;99.90;;;;;;5105200;28;20093;-31
2023/05/21 10:02:59;;;;;;;7.30;2.78;;;21.30;99.90;;;;;;5092086;28;20040;-28
2023/05/21 10:05:29;;;;;;;5.50;2.75;;;21.60;99.90;;;;;;5093027;28;20056;-29
2023/05/21 10:08:03;;;;;;;8.48;2.47;;;21.80;26.90;;;;;;5097657;28;20455;-29
2023/05/21 10:10:30;;;;;;;4.95;2.53;;;21.90;1.00;;;;;;5103966;27;20039;-29
2023/05/21 10:13:08;;;;;;;5.72;2.50;;;21.80;10.00;;;;;;5116676;28;20039;-29
2023/05/21 10:15:41;;;;;;;6.20;2.70;;;21.60;1.00;;;;;;5101919;28;20048;-29
2023/05/21 10:18:08;;;;;;;10.43;3.05;;;21.80;1.00;;;;;;5098013;28;20040;-29
2023/05/21 10:20:35;;;;;;;7.70;2.50;;;21.80;1.00;;;;;;5095886;28;20082;-29
2023/05/21 10:23:01;;;;;;;5.65;2.67;;;21.90;1.00;;;;;;5096792;28;20095;-30
2023/05/21 10:25:29;;;;;;;7.07;3.15;;;22.00;1.00;;;;;;5096072;28;20052;-29
2023/05/21 10:27:56;;;;;;;4.57;2.50;;;22.00;1.00;;;;;;5098271;28;20499;-29
2023/05/21 10:30:23;;;;;;;6.28;3.03;;;21.60;1.00;;;;;;5097179;28;20071;-29
2023/05/21 10:32:49;;;;;;;7.13;4.00;;;21.30;1.00;;;;;;5107092;28;20097;-28
2023/05/21 10:35:16;;;;;;;4.97;2.50;;;21.50;1.00;;;;;;5095259;28;20052;-29
2023/05/21 10:37:45;;;;;;;5.95;2.58;;;21.80;1.00;;;;;;5108921;28;20609;-29
2023/05/21 10:40:12;;;;;;;11.45;3.63;;;22.10;1.00;;;;;;5116512;28;20510;-29
2023/05/21 10:43:18;;;;;;;7.90;2.85;;;22.50;1.00;;;;;;5116825;28;20083;-29
2023/05/21 10:46:13;;;;;;;6.57;2.45;;;23.10;99.90;;;;;;5124240;27;20051;-29
2023/05/21 10:49:12;;;;;;;8.13;2.90;;;23.20;99.90;;;;;;5109910;28;20044;-29
2023/05/21 10:51:50;;;;;;;9.15;2.95;;;23.20;99.90;;;;;;5112642;28;20368;-30
2023/05/21 10:54:34;;;;;;;6.47;2.22;;;23.20;99.90;;;;;;5116914;28;20044;-29
2023/05/21 10:57:12;;;;;;;6.97;2.50;;;23.10;99.90;;;;;;5115244;28;20085;-29
2023/05/21 10:59:48;;;;;;;6.15;3.33;;;22.90;99.90;;;;;;5108010;28;20124;-29
2023/05/21 11:02:15;;;;;;;12.18;2.80;;;22.90;99.90;;;;;;5078070;28;20052;-34
2023/05/21 11:04:43;;;;;;;4.90;2.55;;;22.90;99.90;;;;;;5095646;28;20051;-29
2023/05/21 11:07:11;;;;;;;7.57;2.63;;;22.70;99.90;;;;;;5096006;28;20051;-30
2023/05/21 11:09:37;;;;;;;6.68;2.50;;;22.70;99.90;;;;;;5094553;28;20047;-29
2023/05/21 11:12:03;;;;;;;7.82;2.70;;;22.70;99.90;;;;;;5096366;28;20463;-30
2023/05/21 11:14:42;;;;;;;5.32;2.40;;;22.80;99.90;;;;;;5095797;28;20055;-29
2023/05/21 11:17:08;;;;;;;6.97;2.92;;;22.70;99.90;;;;;;5112399;28;20048;-30
2023/05/21 11:19:40;;;;;;;7.53;3.13;;;22.70;99.90;;;;;;5114917;28;20055;-29
2023/05/21 11:22:08;;;;;;;6.97;2.85;;;22.80;99.90;;;;;;5116743;27;20050;-29
2023/05/21 11:24:38;;;;;;;6.30;3.30;;;23.00;99.90;;;;;;5108390;28;20047;-27
2023/05/21 11:27:04;;;;;;;7.10;3.70;;;22.90;99.90;;;;;;5105073;28;20039;-30
2023/05/21 11:29:39;;;;;;;7.60;3.20;;;22.70;99.90;;;;;;5079739;28;20493;-30
2023/05/21 11:32:09;;;;;;;8.13;2.95;;;22.50;99.90;;;;;;5095417;28;20145;-29
2023/05/21 11:34:38;;;;;;;7.60;3.30;;;22.00;99.90;;;;;;5110128;28;20406;-29
2023/05/21 11:37:21;;;;;;;6.35;3.38;;;21.60;99.90;;;;;;5115791;27;20383;-30
2023/05/21 11:39:48;;;;;;;6.55;3.50;;;21.50;1.00;;;;;;5116414;28;20044;-29
2023/05/21 11:42:28;;;;;;;8.02;3.25;;;21.30;1.00;;;;;;5096051;28;20393;-29
2023/05/21 11:44:56;;;;;;;7.32;3.85;;;21.70;2.40;;;;;;5096641;28;20054;-29
2023/05/21 11:47:22;;;;;;;10.38;5.30;;;22.40;1.00;;;;;;5094069;28;20052;-29
2023/05/21 11:49:48;;;;;;;9.75;3.90;;;22.60;1.00;;;;;;5094735;28;20070;-30
2023/05/21 11:52:14;;;;;;;9.98;3.58;;;23.00;1.00;;;;;;5094537;28;20471;-27
2023/05/21 11:54:52;;;;;;;8.75;3.13;;;23.40;1.00;;;;;;5110933;28;21241;-29
2023/05/21 11:57:18;;;;;;;7.15;3.38;;;23.40;1.00;;;;;;5108175;28;20043;-29
2023/05/21 11:59:45;;;;;;;5.40;3.40;;;23.30;99.90;;;;;;5115319;28;20444;-30
2023/05/21 12:02:16;;;;;;;7.57;3.20;;;23.20;99.90;;;;;;5097621;28;20047;-30
2023/05/21 12:04:42;;;;;;;11.35;4.28;;;23.20;99.90;;;;;;5115243;28;20040;-29
2023/05/21 12:07:09;;;;;;;6.70;3.72;;;23.60;1.00;;;;;;5096452;28;20116;-29
2023/05/21 12:09:43;;;;;;;8.43;3.75;;;23.90;99.90;;;;;;5093489;28;20044;-30
2023/05/21 12:12:14;;;;;;;7.60;4.20;;;23.70;99.90;;;;;;5094166;28;20122;-29
2023/05/21 12:14:47;;;;;;;9.68;3.50;;;23.50;99.90;;;;;;5094814;28;20055;-30
2023/05/21 12:17:24;;;;;;;9.30;4.40;;;23.60;99.90;;;;;;5128901;27;20502;-29
2023/05/21 12:19:52;;;;;;;8.70;4.18;;;23.10;99.90;;;;;;5097718;28;20040;-29
2023/05/21 12:22:18;;;;;;;8.10;4.13;;;23.80;99.90;;;;;;5114884;28;20055;-28
2023/05/21 12:24:45;;;;;;;12.10;5.22;;;23.60;99.90;;;;;;5114812;28;20494;-29
2023/05/21 12:27:12;;;;;;;8.43;4.55;;;23.80;99.90;;;;;;5104200;28;20104;-29
2023/05/21 12:29:42;;;;;;;6.82;4.03;;;23.90;99.90;;;;;;5107228;28;20044;-30
2023/05/21 12:32:11;;;;;;;7.68;5.30;;;23.90;99.90;;;;;;5096747;28;20395;-29
2023/05/21 12:34:44;;;;;;;9.45;5.07;;;23.90;99.90;;;;;;5114689;28;20048;-29
2023/05/21 12:37:15;;;;;;;8.32;5.13;;;23.80;99.90;;;;;;5110442;28;20075;-29
2023/05/21 12:39:45;;;;;;;9.75;5.07;;;23.60;99.90;;;;;;5110673;28;20517;-29
2023/05/21 12:42:12;;;;;;;6.32;5.13;;;24.00;1.00;;;;;;5114800;28;20051;-29
2023/05/21 12:44:47;;;;;;;11.10;6.32;;;23.80;99.90;;;;;;5114049;28;20048;-29
2023/05/21 12:47:13;;;;;;;7.80;5.88;;;24.10;99.90;;;;;;5106157;28;20048;-30
2023/05/21 12:49:40;;;;;;;10.25;5.55;;;24.10;99.90;;;;;;5094563;28;20051;-29